createdAt,value
2019-06-08T00:01:31.032Z,16.60
2019-06-08T00:04:00.773Z,16.50
2019-06-08T00:06:30.471Z,16.50
2019-06-08T00:09:00.227Z,16.60
2019-06-08T00:11:29.918Z,16.70
2019-06-08T00:13:59.595Z,16.70
2019-06-08T00:16:29.410Z,16.50
2019-06-08T00:18:59.167Z,16.50
2019-06-08T00:21:28.940Z,16.50
2019-06-08T00:23:58.746Z,16.40
2019-06-08T00:26:28.465Z,16.30
2019-06-08T00:28:58.135Z,16.30
2019-06-08T00:31:27.832Z,16.30
2019-06-08T00:33:57.492Z,16.30
2019-06-08T00:36:27.191Z,16.30
2019-06-08T00:38:56.867Z,16.20
2019-06-08T00:41:26.634Z,16.20
2019-06-08T00:43:56.541Z,16.10
2019-06-08T00:46:26.297Z,16.10
2019-06-08T00:48:58.761Z,16.20
2019-06-08T00:51:29.689Z,16.10
2019-06-08T00:53:59.888Z,16.20
2019-06-08T00:56:31.133Z,16.10
2019-06-08T00:59:02.397Z,16.20
2019-06-08T01:01:32.162Z,16.10
2019-06-08T01:04:01.761Z,16.10
2019-06-08T01:06:31.492Z,16.10
2019-06-08T01:09:01.400Z,16.10
2019-06-08T01:11:31.470Z,16.00
2019-06-08T01:14:01.449Z,16.00
2019-06-08T01:16:31.184Z,15.90
2019-06-08T01:19:00.880Z,15.90
2019-06-08T01:21:30.817Z,15.90
2019-06-08T01:24:02.652Z,15.90
2019-06-08T01:26:32.423Z,15.90
2019-06-08T01:29:03.392Z,15.90
2019-06-08T01:31:33.425Z,15.90
2019-06-08T01:34:03.305Z,15.80
2019-06-08T01:36:33.103Z,15.90
2019-06-08T01:39:02.701Z,15.90
2019-06-08T01:41:34.053Z,15.90
2019-06-08T01:44:04.289Z,15.80
2019-06-08T01:46:34.125Z,15.80
2019-06-08T01:49:03.995Z,15.90
2019-06-08T01:51:33.848Z,15.80
2019-06-08T01:54:03.828Z,15.80
2019-06-08T01:56:37.294Z,15.80
2019-06-08T01:59:06.931Z,15.80
2019-06-08T02:01:38.465Z,15.80
2019-06-08T02:04:08.408Z,15.70
2019-06-08T02:06:38.442Z,15.70
2019-06-08T02:09:10.717Z,15.60
2019-06-08T02:11:40.653Z,15.60
2019-06-08T02:14:10.253Z,15.40
2019-06-08T02:16:40.217Z,15.40
2019-06-08T02:19:09.955Z,15.20
2019-06-08T02:21:40.087Z,15.20
2019-06-08T02:24:10.592Z,15.20
2019-06-08T02:26:41.902Z,15.20
2019-06-08T02:29:11.669Z,15.20
2019-06-08T02:31:42.036Z,15.20
2019-06-08T02:34:11.928Z,15.20
2019-06-08T02:36:41.703Z,15.20
2019-06-08T02:39:11.511Z,15.30
2019-06-08T02:41:41.274Z,15.30
2019-06-08T02:44:11.411Z,15.30
2019-06-08T02:46:41.301Z,15.40
2019-06-08T02:49:10.984Z,15.50
2019-06-08T02:51:41.311Z,15.50
2019-06-08T02:54:12.825Z,15.40
2019-06-08T02:56:44.357Z,15.30
2019-06-08T02:59:17.292Z,15.30
2019-06-08T03:01:50.646Z,15.30
2019-06-08T03:04:22.386Z,15.30
2019-06-08T03:06:53.692Z,15.30
2019-06-08T03:09:26.503Z,15.30
2019-06-08T03:11:57.246Z,15.30
2019-06-08T03:14:28.653Z,15.10
2019-06-08T03:16:59.818Z,15.00
2019-06-08T03:19:31.234Z,15.00
2019-06-08T03:22:01.185Z,15.10
2019-06-08T03:24:34.348Z,15.20
2019-06-08T03:27:03.873Z,15.10
2019-06-08T03:29:34.917Z,15.10
2019-06-08T03:32:05.153Z,15.20
2019-06-08T03:34:43.054Z,15.20
2019-06-08T03:37:08.031Z,15.20
2019-06-08T03:39:38.963Z,15.20
2019-06-08T03:42:08.779Z,15.10
2019-06-08T03:44:40.380Z,15.10
2019-06-08T03:47:10.237Z,15.40
2019-06-08T03:49:50.613Z,15.60
2019-06-08T03:52:11.666Z,15.70
2019-06-08T03:54:43.062Z,15.90
2019-06-08T03:57:13.188Z,16.00
2019-06-08T03:59:45.153Z,16.30
2019-06-08T04:02:14.473Z,16.40
2019-06-08T04:04:46.095Z,16.60
2019-06-08T04:07:15.905Z,16.70
2019-06-08T04:09:46.012Z,16.80
2019-06-08T04:12:20.472Z,16.80
2019-06-08T04:14:50.543Z,16.60
2019-06-08T04:17:22.980Z,16.50
2019-06-08T04:20:09.746Z,16.50
2019-06-08T04:22:24.163Z,16.50
2019-06-08T04:24:55.603Z,16.40
2019-06-08T04:27:25.217Z,16.40
2019-06-08T04:29:55.348Z,16.50
2019-06-08T04:32:25.176Z,16.50
2019-06-08T04:34:55.010Z,16.60
2019-06-08T04:37:24.754Z,16.70
2019-06-08T04:39:54.368Z,16.70
2019-06-08T04:42:23.999Z,16.80
2019-06-08T04:44:53.766Z,17.00
2019-06-08T04:47:23.530Z,17.20
2019-06-08T04:49:53.430Z,17.40
2019-06-08T04:52:23.283Z,17.70
2019-06-08T04:54:53.055Z,18.30
2019-06-08T04:57:22.660Z,18.90
2019-06-08T04:59:52.373Z,19.40
2019-06-08T05:02:22.186Z,19.70
2019-06-08T05:04:51.965Z,20.00
2019-06-08T05:07:21.743Z,20.30
2019-06-08T05:09:51.519Z,20.60
2019-06-08T05:12:21.269Z,20.70
2019-06-08T05:14:51.038Z,21.00
2019-06-08T05:17:20.783Z,21.20
2019-06-08T05:19:51.950Z,21.50
2019-06-08T05:22:24.823Z,21.60
2019-06-08T05:24:54.613Z,21.60
2019-06-08T05:27:25.797Z,21.60
2019-06-08T05:29:55.493Z,21.70
2019-06-08T05:32:26.730Z,21.90
2019-06-08T05:35:00.478Z,22.10
2019-06-08T05:37:29.529Z,22.30
2019-06-08T05:39:59.139Z,22.50
2019-06-08T05:42:30.404Z,22.60
2019-06-08T05:45:00.127Z,22.70
2019-06-08T05:47:29.814Z,22.90
2019-06-08T05:49:59.490Z,23.00
2019-06-08T05:52:29.173Z,23.30
2019-06-08T05:54:58.848Z,23.60
2019-06-08T05:57:28.542Z,23.90
2019-06-08T05:59:58.281Z,24.30
2019-06-08T06:02:27.909Z,24.70
2019-06-08T06:04:57.904Z,24.70
2019-06-08T06:07:27.960Z,25.00
2019-06-08T06:09:57.752Z,25.30
2019-06-08T06:12:27.585Z,25.50
2019-06-08T06:14:57.302Z,25.60
2019-06-08T06:17:27.036Z,25.80
2019-06-08T06:19:56.882Z,26.10
2019-06-08T06:22:26.716Z,26.30
2019-06-08T06:24:56.353Z,26.20
2019-06-08T06:27:26.047Z,26.10
2019-06-08T06:29:55.648Z,26.20
2019-06-08T06:32:25.412Z,26.40
2019-06-08T06:34:55.255Z,26.30
2019-06-08T06:37:25.098Z,26.40
2019-06-08T06:39:54.865Z,26.80
2019-06-08T06:42:25.268Z,27.10
2019-06-08T06:44:55.142Z,27.40
2019-06-08T06:47:25.045Z,27.50
2019-06-08T06:49:55.015Z,27.60
2019-06-08T06:52:24.828Z,27.80
2019-06-08T06:54:54.425Z,27.90
2019-06-08T06:57:24.349Z,27.90
2019-06-08T06:59:54.394Z,27.90
2019-06-08T07:02:24.361Z,27.90
2019-06-08T07:04:54.387Z,28.00
2019-06-08T07:07:24.226Z,28.10
2019-06-08T07:09:54.954Z,28.10
2019-06-08T07:12:26.289Z,28.40
2019-06-08T07:14:57.917Z,28.60
2019-06-08T07:17:27.936Z,28.60
2019-06-08T07:19:58.922Z,28.80
2019-06-08T07:22:28.793Z,28.90
2019-06-08T07:24:58.700Z,28.90
2019-06-08T07:27:28.427Z,28.90
2019-06-08T07:29:59.020Z,29.10
2019-06-08T07:32:28.869Z,29.10
2019-06-08T07:34:59.383Z,29.20
2019-06-08T07:37:29.177Z,29.30
2019-06-08T07:40:00.160Z,29.20
2019-06-08T07:42:30.184Z,29.20
2019-06-08T07:45:00.510Z,29.20
2019-06-08T07:47:30.241Z,29.20
2019-06-08T07:50:00.169Z,29.10
2019-06-08T07:52:29.987Z,29.30
2019-06-08T07:54:59.657Z,29.10
2019-06-08T07:57:29.506Z,29.00
2019-06-08T08:00:00.180Z,29.00
2019-06-08T08:02:32.773Z,29.10
2019-06-08T08:05:02.534Z,29.00
2019-06-08T08:07:32.307Z,28.90
2019-06-08T08:10:02.046Z,29.00
2019-06-08T08:12:31.921Z,29.10
2019-06-08T08:15:01.543Z,29.10
2019-06-08T08:17:34.254Z,29.10
2019-06-08T08:20:02.951Z,29.20
2019-06-08T08:22:32.622Z,29.10
2019-06-08T08:25:05.081Z,29.00
2019-06-08T08:27:37.398Z,29.00
2019-06-08T08:30:10.555Z,28.90
2019-06-08T08:32:40.387Z,28.90
2019-06-08T08:35:10.299Z,29.00
2019-06-08T08:37:40.121Z,28.90
2019-06-08T08:40:10.218Z,28.90
2019-06-08T08:42:40.045Z,28.80
2019-06-08T08:45:10.655Z,29.00
2019-06-08T08:47:40.280Z,29.10
2019-06-08T08:50:10.788Z,28.90
2019-06-08T08:52:41.085Z,29.00
2019-06-08T08:55:11.876Z,29.20
2019-06-08T08:57:41.836Z,29.40
2019-06-08T09:00:12.850Z,29.50
2019-06-08T09:02:42.612Z,29.40
2019-06-08T09:05:14.098Z,29.30
2019-06-08T09:07:48.320Z,29.20
2019-06-08T09:10:18.548Z,29.20
2019-06-08T09:12:48.675Z,29.30
2019-06-08T09:15:19.346Z,29.20
2019-06-08T09:17:49.643Z,29.30
2019-06-08T09:20:21.265Z,29.20
2019-06-08T09:22:59.135Z,29.20
2019-06-08T09:25:22.452Z,29.10
2019-06-08T09:27:54.706Z,29.30
2019-06-08T09:30:27.507Z,29.10
2019-06-08T09:33:00.215Z,28.70
2019-06-08T09:35:28.167Z,28.40
2019-06-08T09:38:01.204Z,28.20
2019-06-08T09:40:32.645Z,28.30
2019-06-08T09:43:06.088Z,28.20
2019-06-08T09:45:31.959Z,28.30
2019-06-08T09:48:05.512Z,28.20
2019-06-08T09:50:34.547Z,28.00
2019-06-08T09:53:22.366Z,27.90
2019-06-08T09:55:38.640Z,28.00
2019-06-08T09:58:11.670Z,28.10
2019-06-08T10:00:40.341Z,28.10
2019-06-08T10:03:09.996Z,28.20
2019-06-08T10:05:39.728Z,28.50
2019-06-08T10:08:09.798Z,28.50
2019-06-08T10:10:39.664Z,28.70
2019-06-08T10:13:09.904Z,28.70
2019-06-08T10:15:39.860Z,28.50
2019-06-08T10:18:09.550Z,28.20
2019-06-08T10:20:40.663Z,27.90
2019-06-08T10:23:27.317Z,27.90
2019-06-08T10:25:41.870Z,28.00
2019-06-08T10:28:15.905Z,28.20
2019-06-08T10:30:42.866Z,28.30
2019-06-08T10:33:12.496Z,28.40
2019-06-08T10:35:42.112Z,28.40
2019-06-08T10:38:12.188Z,28.40
2019-06-08T10:41:06.347Z,28.40
2019-06-08T10:43:32.051Z,28.40
2019-06-08T10:46:08.482Z,28.60
2019-06-08T10:48:33.074Z,29.00
2019-06-08T10:51:05.253Z,29.00
2019-06-08T10:53:48.234Z,29.00
2019-06-08T10:56:10.331Z,28.90
2019-06-08T10:58:38.561Z,29.00
2019-06-08T11:01:11.143Z,28.90
2019-06-08T11:03:39.886Z,29.10
2019-06-08T11:06:12.967Z,29.10
2019-06-08T11:08:41.053Z,29.40
2019-06-08T11:11:11.923Z,29.60
2019-06-08T11:13:44.732Z,29.80
2019-06-08T11:16:14.564Z,29.80
2019-06-08T11:18:44.304Z,30.10
2019-06-08T11:21:14.153Z,30.40
2019-06-08T11:23:43.863Z,30.50
2019-06-08T11:26:19.836Z,30.40
2019-06-08T11:28:45.072Z,30.50
2019-06-08T11:31:16.273Z,30.20
2019-06-08T11:33:48.989Z,30.00
2019-06-08T11:36:19.040Z,30.10
2019-06-08T11:38:48.920Z,30.10
2019-06-08T11:41:22.892Z,29.70
2019-06-08T11:43:52.708Z,29.30
2019-06-08T11:46:22.400Z,29.30
2019-06-08T11:48:52.113Z,29.20
2019-06-08T11:51:21.734Z,29.30
2019-06-08T11:53:52.596Z,29.60
2019-06-08T11:56:23.508Z,29.70
2019-06-08T11:58:57.947Z,29.40
2019-06-08T12:01:27.801Z,29.10
2019-06-08T12:03:58.019Z,28.70
2019-06-08T12:06:27.774Z,28.60
2019-06-08T12:09:00.133Z,28.60
2019-06-08T12:11:29.218Z,28.90
2019-06-08T12:13:58.979Z,29.10
2019-06-08T12:16:31.846Z,29.40
2019-06-08T12:19:01.415Z,29.40
2019-06-08T12:21:31.207Z,29.40
2019-06-08T12:24:00.927Z,29.30
2019-06-08T12:26:30.693Z,29.20
2019-06-08T12:29:19.897Z,29.00
2019-06-08T12:31:49.526Z,28.80
2019-06-08T12:34:19.197Z,28.60
2019-06-08T12:36:48.827Z,28.40
2019-06-08T12:39:20.998Z,28.10
2019-06-08T12:41:49.870Z,28.10
2019-06-08T12:44:22.033Z,28.40
2019-06-08T12:46:50.883Z,28.60
2019-06-08T12:49:20.583Z,28.70
2019-06-08T12:51:51.751Z,28.80
2019-06-08T12:54:21.831Z,28.70
2019-06-08T12:56:51.434Z,28.30
2019-06-08T12:59:23.004Z,28.30
2019-06-08T13:01:52.515Z,28.30
2019-06-08T13:04:23.807Z,28.20
2019-06-08T13:06:53.660Z,28.20
2019-06-08T13:09:23.257Z,28.20
2019-06-08T13:11:56.198Z,28.20
2019-06-08T13:14:24.203Z,28.10
2019-06-08T13:16:53.872Z,28.20
2019-06-08T13:19:23.498Z,28.10
2019-06-08T13:21:53.096Z,28.30
2019-06-08T13:24:22.815Z,28.30
2019-06-08T13:26:52.431Z,28.20
2019-06-08T13:29:22.317Z,28.20
2019-06-08T13:31:52.106Z,28.30
2019-06-08T13:34:24.097Z,28.20
2019-06-08T13:36:53.088Z,28.00
2019-06-08T13:39:23.256Z,28.00
2019-06-08T13:41:53.069Z,27.90
2019-06-08T13:44:22.697Z,27.90
2019-06-08T13:46:52.332Z,28.00
2019-06-08T13:49:26.695Z,28.00
2019-06-08T13:51:53.281Z,27.90
2019-06-08T13:54:24.300Z,27.90
2019-06-08T13:56:54.036Z,28.00
2019-06-08T13:59:27.350Z,28.10
2019-06-08T14:01:55.152Z,28.10
2019-06-08T14:04:25.238Z,27.90
2019-06-08T14:06:54.975Z,27.50
2019-06-08T14:09:25.039Z,27.30
2019-06-08T14:11:54.816Z,27.30
2019-06-08T14:14:25.623Z,27.30
2019-06-08T14:16:58.433Z,27.50
2019-06-08T14:19:31.074Z,27.60
2019-06-08T14:21:58.408Z,27.70
2019-06-08T14:24:34.332Z,27.70
2019-06-08T14:26:59.385Z,27.70
2019-06-08T14:29:30.439Z,27.70
2019-06-08T14:32:00.238Z,27.70
2019-06-08T14:34:31.225Z,27.50
2019-06-08T14:37:00.948Z,27.50
2019-06-08T14:39:31.783Z,27.50
2019-06-08T14:42:01.650Z,27.50
2019-06-08T14:44:32.135Z,27.40
2019-06-08T14:47:04.311Z,27.40
2019-06-08T14:49:35.186Z,27.40
2019-06-08T14:52:04.973Z,27.50
2019-06-08T14:54:35.348Z,27.60
2019-06-08T14:57:05.158Z,27.60
2019-06-08T14:59:34.775Z,27.70
2019-06-08T15:02:04.579Z,27.60
2019-06-08T15:04:36.951Z,27.40
2019-06-08T15:07:09.279Z,27.00
2019-06-08T15:09:37.603Z,26.70
2019-06-08T15:12:09.387Z,26.60
2019-06-08T15:14:39.126Z,26.60
2019-06-08T15:17:08.779Z,26.60
2019-06-08T15:19:38.494Z,26.40
2019-06-08T15:22:11.169Z,26.30
2019-06-08T15:24:39.756Z,26.20
2019-06-08T15:27:09.444Z,26.10
2019-06-08T15:29:39.072Z,26.00
2019-06-08T15:32:08.865Z,26.10
2019-06-08T15:34:38.546Z,26.00
2019-06-08T15:37:09.238Z,25.90
2019-06-08T15:39:39.125Z,25.90
2019-06-08T15:42:08.719Z,25.90
2019-06-08T15:44:38.523Z,25.90
2019-06-08T15:47:08.408Z,25.90
2019-06-08T15:49:39.149Z,25.90
2019-06-08T15:52:09.310Z,25.90
2019-06-08T15:54:41.026Z,25.90
2019-06-08T15:57:10.265Z,25.90
2019-06-08T15:59:41.803Z,26.00
2019-06-08T16:02:11.282Z,26.00
2019-06-08T16:04:40.881Z,25.90
2019-06-08T16:07:10.744Z,25.80
2019-06-08T16:09:40.396Z,25.70
2019-06-08T16:12:09.999Z,25.70
2019-06-08T16:14:41.503Z,25.80
2019-06-08T16:17:11.018Z,25.70
2019-06-08T16:19:40.665Z,25.70
2019-06-08T16:22:10.332Z,25.60
2019-06-08T16:24:39.949Z,25.50
2019-06-08T16:27:09.711Z,25.50
2019-06-08T16:29:39.372Z,25.50
2019-06-08T16:32:09.077Z,25.40
2019-06-08T16:34:39.697Z,25.30
2019-06-08T16:37:09.627Z,25.20
2019-06-08T16:39:39.234Z,25.10
2019-06-08T16:42:08.829Z,25.10
2019-06-08T16:44:38.670Z,25.10
2019-06-08T16:47:08.652Z,25.10
2019-06-08T16:49:39.568Z,25.10
2019-06-08T16:52:09.311Z,25.10
2019-06-08T16:54:39.080Z,25.00
2019-06-08T16:57:10.747Z,25.00
2019-06-08T16:59:40.215Z,24.90
2019-06-08T17:02:10.467Z,24.80
2019-06-08T17:04:40.067Z,24.70
2019-06-08T17:07:09.696Z,24.70
2019-06-08T17:09:40.046Z,24.70
2019-06-08T17:12:09.811Z,24.60
2019-06-08T17:14:40.664Z,24.50
2019-06-08T17:17:10.462Z,24.40
2019-06-08T17:19:40.360Z,24.30
2019-06-08T17:22:10.084Z,24.30
2019-06-08T17:24:40.772Z,24.20
2019-06-08T17:27:26.013Z,24.20
2019-06-08T17:29:42.000Z,24.10
2019-06-08T17:32:11.727Z,24.10
2019-06-08T17:34:42.464Z,24.10
2019-06-08T17:37:12.250Z,24.10
2019-06-08T17:39:42.576Z,24.00
2019-06-08T17:42:12.421Z,24.00
2019-06-08T17:44:42.606Z,24.00
2019-06-08T17:47:12.429Z,24.00
2019-06-08T17:49:43.220Z,24.00
2019-06-08T17:52:13.083Z,24.00
2019-06-08T17:54:43.319Z,24.00
2019-06-08T17:57:13.085Z,24.00
2019-06-08T17:59:42.850Z,23.90
2019-06-08T18:02:20.856Z,23.90
2019-06-08T18:04:44.472Z,23.80
2019-06-08T18:07:14.422Z,23.70
2019-06-08T18:09:45.177Z,23.80
2019-06-08T18:12:14.843Z,23.70
2019-06-08T18:14:45.162Z,23.70
2019-06-08T18:17:17.809Z,23.70
2019-06-08T18:19:49.725Z,23.70
2019-06-08T18:22:18.846Z,23.60
2019-06-08T18:24:48.477Z,23.60
2019-06-08T18:27:18.344Z,23.60
2019-06-08T18:29:48.678Z,23.60
2019-06-08T18:32:18.690Z,23.50
2019-06-08T18:34:48.334Z,23.50
2019-06-08T18:37:18.598Z,23.50
2019-06-08T18:39:49.388Z,23.40
2019-06-08T18:42:21.016Z,23.30
2019-06-08T18:44:50.614Z,23.20
2019-06-08T18:47:20.307Z,23.10
2019-06-08T18:49:49.939Z,23.10
2019-06-08T18:52:19.625Z,23.00
2019-06-08T18:54:49.767Z,22.90
2019-06-08T18:57:19.536Z,22.90
2019-06-08T18:59:52.921Z,22.70
2019-06-08T19:02:20.639Z,22.70
2019-06-08T19:04:50.347Z,22.60
2019-06-08T19:07:20.119Z,22.60
2019-06-08T19:09:49.938Z,22.50
2019-06-08T19:12:19.897Z,22.50
2019-06-08T19:14:52.162Z,22.40
2019-06-08T19:17:21.523Z,22.30
2019-06-08T19:19:52.244Z,22.30
2019-06-08T19:22:22.371Z,22.30
2019-06-08T19:24:52.022Z,22.30
2019-06-08T19:27:21.726Z,22.30
2019-06-08T19:29:51.736Z,22.20
2019-06-08T19:32:21.631Z,22.10
2019-06-08T19:34:54.427Z,22.00
2019-06-08T19:37:22.739Z,21.90
2019-06-08T19:39:52.366Z,21.80
2019-06-08T19:42:35.867Z,21.70
2019-06-08T19:45:01.172Z,21.80
2019-06-08T19:47:27.068Z,21.70
2019-06-08T19:49:57.743Z,21.60
2019-06-08T19:52:27.331Z,21.50
2019-06-08T19:54:58.085Z,21.40
2019-06-08T19:57:28.356Z,21.30
2019-06-08T20:00:00.389Z,21.30
2019-06-08T20:02:29.354Z,21.20
2019-06-08T20:04:58.981Z,21.30
2019-06-08T20:07:28.575Z,21.20
2019-06-08T20:09:58.192Z,21.20
2019-06-08T20:12:28.258Z,21.10
2019-06-08T20:14:57.923Z,21.00
2019-06-08T20:17:28.442Z,20.80
2019-06-08T20:19:58.471Z,20.60
2019-06-08T20:22:28.224Z,20.40
2019-06-08T20:24:57.865Z,20.30
2019-06-08T20:27:27.741Z,20.20
2019-06-08T20:29:58.211Z,20.20
2019-06-08T20:32:29.367Z,20.20
2019-06-08T20:34:59.058Z,20.00
2019-06-08T20:37:30.275Z,19.90
2019-06-08T20:40:10.260Z,19.60
2019-06-08T20:42:31.280Z,19.50
2019-06-08T20:45:00.900Z,19.40
2019-06-08T20:47:30.495Z,19.40
2019-06-08T20:50:00.128Z,19.20
2019-06-08T20:52:29.725Z,19.10
2019-06-08T20:54:59.343Z,18.90
2019-06-08T20:57:29.117Z,18.80
2019-06-08T20:59:58.752Z,18.70
2019-06-08T21:02:28.654Z,18.70
2019-06-08T21:04:59.399Z,18.60
2019-06-08T21:07:30.642Z,18.60
2019-06-08T21:10:01.728Z,18.50
2019-06-08T21:12:34.526Z,18.50
2019-06-08T21:15:07.090Z,18.50
2019-06-08T21:17:38.386Z,18.60
2019-06-08T21:20:09.015Z,18.60
2019-06-08T21:22:38.636Z,18.50
2019-06-08T21:25:08.899Z,18.40
2019-06-08T21:27:39.621Z,18.40
2019-06-08T21:30:20.588Z,18.40
2019-06-08T21:32:40.928Z,18.40
2019-06-08T21:35:10.595Z,18.40
2019-06-08T21:37:40.286Z,18.50
2019-06-08T21:40:10.026Z,18.50
2019-06-08T21:42:39.712Z,18.60
2019-06-08T21:45:12.570Z,18.70
2019-06-08T21:47:42.167Z,18.70
2019-06-08T21:50:12.299Z,18.70
2019-06-08T21:52:41.928Z,18.70
2019-06-08T21:55:11.963Z,18.70
2019-06-08T21:57:41.597Z,18.60
2019-06-08T22:00:34.727Z,18.70
2019-06-08T22:02:44.169Z,18.60
2019-06-08T22:05:14.127Z,18.60
2019-06-08T22:07:47.183Z,18.40
2019-06-08T22:10:17.943Z,18.10
2019-06-08T22:12:48.575Z,18.10
2019-06-08T22:15:18.569Z,18.10
2019-06-08T22:17:48.160Z,18.00
2019-06-08T22:20:18.781Z,18.10
2019-06-08T22:22:48.410Z,18.10
2019-06-08T22:25:18.130Z,18.00
2019-06-08T22:27:47.722Z,18.00
2019-06-08T22:30:32.416Z,18.00
2019-06-08T22:32:49.607Z,17.90
2019-06-08T22:35:19.199Z,17.90
2019-06-08T22:37:48.808Z,18.00
2019-06-08T22:40:18.740Z,18.10
2019-06-08T22:42:49.872Z,18.20
2019-06-08T22:45:19.494Z,18.20
2019-06-08T22:47:49.114Z,18.10
2019-06-08T22:50:19.146Z,18.10
2019-06-08T22:52:48.941Z,17.90
2019-06-08T22:55:18.775Z,17.90
2019-06-08T22:57:48.449Z,17.80
2019-06-08T23:00:24.612Z,17.80
2019-06-08T23:02:52.125Z,17.80
2019-06-08T23:05:23.224Z,17.90
2019-06-08T23:07:54.748Z,17.90
2019-06-08T23:10:24.167Z,18.00
2019-06-08T23:12:54.343Z,18.00
2019-06-08T23:15:24.036Z,17.90
2019-06-08T23:17:54.929Z,17.90
2019-06-08T23:20:24.982Z,17.90
2019-06-08T23:22:55.653Z,17.80
2019-06-08T23:25:27.944Z,17.80
2019-06-08T23:27:58.180Z,17.90
2019-06-08T23:30:28.019Z,17.90
2019-06-08T23:33:01.079Z,17.90
2019-06-08T23:35:41.951Z,17.90
2019-06-08T23:38:00.856Z,17.90
2019-06-08T23:40:30.614Z,18.00
2019-06-08T23:43:01.592Z,18.00
2019-06-08T23:45:33.207Z,18.10
2019-06-08T23:48:04.599Z,18.10
2019-06-08T23:50:37.933Z,18.10
2019-06-08T23:53:10.572Z,18.00
2019-06-08T23:55:40.651Z,18.00
2019-06-08T23:58:11.353Z,17.90
